sensor_id;sensor_type;location;lat;lon;timestamp;temperature;humidity
18932;DHT22;9598;50.954;3.112;2024-01-15T00:04:05;4.20;99.90
18932;DHT22;9598;50.954;3.112;2024-01-15T00:09:09;4.30;99.90
18932;DHT22;9598;50.954;3.112;2024-01-15T00:14:11;4.30;99.90
18932;DHT22;9598;50.954;3.112;2024-01-15T00:19:15;4.30;99.90
18932;DHT22;9598;50.954;3.112;2024-01-15T00:24:18;4.30;99.90
18932;DHT22;9598;50.954;3.112;2024-01-15T00:29:21;4.40;99.90
18932;DHT22;9598;50.954;3.112;2024-01-15T00:34:23;4.40;99.90
18932;DHT22;9598;50.954;3.112;2024-01-15T00:39:26;4.40;99.90
18932;DHT22;9598;50.954;3.112;2024-01-15T00:44:28;4.40;99.90
18932;DHT22;9598;50.954;3.112;2024-01-15T00:49:31;4.50;99.90
18932;DHT22;9598;50.954;3.112;2024-01-15T00:54:34;4.50;99.90
18932;DHT22;9598;50.954;3.112;2024-01-15T00:59:36;4.50;99.90
18932;DHT22;9598;50.954;3.112;2024-01-15T01:04:40;4.50;99.90
18932;DHT22;9598;50.954;3.112;2024-01-15T01:09:43;4.60;99.90
18932;DHT22;9598;50.954;3.112;2024-01-15T01:14:46;4.60;99.90
18932;DHT22;9598;50.954;3.112;2024-01-15T01:19:49;4.60;99.90
18932;DHT22;9598;50.954;3.112;2024-01-15T01:24:53;4.60;99.90
18932;DHT22;9598;50.954;3.112;2024-01-15T01:29:55;4.60;99.90
18932;DHT22;9598;50.954;3.112;2024-01-15T01:34:57;4.60;99.90
18932;DHT22;9598;50.954;3.112;2024-01-15T01:40:00;4.60;99.90
18932;DHT22;9598;50.954;3.112;2024-01-15T01:45:03;4.60;99.90
18932;DHT22;9598;50.954;3.112;2024-01-15T01:50:06;4.60;99.90
18932;DHT22;9598;50.954;3.112;2024-01-15T01:55:11;4.60;99.90
18932;DHT22;9598;50.954;3.112;2024-01-15T02:00:14;4.50;99.90
18932;DHT22;9598;50.954;3.112;2024-01-15T02:05:18;4.50;99.90
18932;DHT22;9598;50.954;3.112;2024-01-15T02:10:24;4.50;99.90
18932;DHT22;9598;50.954;3.112;2024-01-15T02:15:26;4.50;99.90
18932;DHT22;9598;50.954;3.112;2024-01-15T02:20:28;4.50;99.90
18932;DHT22;9598;50.954;3.112;2024-01-15T02:25:31;4.50;99.90
18932;DHT22;9598;50.954;3.112;2024-01-15T02:30:35;4.50;99.90
18932;DHT22;9598;50.954;3.112;2024-01-15T02:35:38;4.40;99.90
18932;DHT22;9598;50.954;3.112;2024-01-15T02:40:42;4.50;99.90
18932;DHT22;9598;50.954;3.112;2024-01-15T02:45:45;4.40;99.90
18932;DHT22;9598;50.954;3.112;2024-01-15T02:50:47;4.40;99.90
18932;DHT22;9598;50.954;3.112;2024-01-15T02:55:51;4.40;99.90
18932;DHT22;9598;50.954;3.112;2024-01-15T03:00:53;4.50;99.90
18932;DHT22;9598;50.954;3.112;2024-01-15T03:05:55;4.50;99.90
18932;DHT22;9598;50.954;3.112;2024-01-15T03:10:58;4.50;99.90
18932;DHT22;9598;50.954;3.112;2024-01-15T03:16:01;4.40;99.90
18932;DHT22;9598;50.954;3.112;2024-01-15T03:21:05;4.40;99.90
18932;DHT22;9598;50.954;3.112;2024-01-15T03:26:08;4.40;99.90
18932;DHT22;9598;50.954;3.112;2024-01-15T03:31:10;4.50;99.90
18932;DHT22;9598;50.954;3.112;2024-01-15T03:36:12;4.50;99.90
18932;DHT22;9598;50.954;3.112;2024-01-15T03:41:16;4.40;99.90
18932;DHT22;9598;50.954;3.112;2024-01-15T03:46:18;4.50;99.90
18932;DHT22;9598;50.954;3.112;2024-01-15T03:51:20;4.40;99.90
18932;DHT22;9598;50.954;3.112;2024-01-15T03:56:24;4.40;99.90
18932;DHT22;9598;50.954;3.112;2024-01-15T04:01:26;4.50;99.90
18932;DHT22;9598;50.954;3.112;2024-01-15T04:06:28;4.60;99.90
18932;DHT22;9598;50.954;3.112;2024-01-15T04:11:31;4.60;99.90
18932;DHT22;9598;50.954;3.112;2024-01-15T04:16:33;4.70;99.90
18932;DHT22;9598;50.954;3.112;2024-01-15T04:21:35;4.60;99.90
18932;DHT22;9598;50.954;3.112;2024-01-15T04:26:39;4.60;99.90
18932;DHT22;9598;50.954;3.112;2024-01-15T04:31:41;4.60;99.90
18932;DHT22;9598;50.954;3.112;2024-01-15T04:36:43;4.60;99.90
18932;DHT22;9598;50.954;3.112;2024-01-15T04:41:46;4.50;99.90
18932;DHT22;9598;50.954;3.112;2024-01-15T04:46:48;4.50;99.90
18932;DHT22;9598;50.954;3.112;2024-01-15T04:51:50;4.60;99.90
18932;DHT22;9598;50.954;3.112;2024-01-15T04:56:54;4.60;99.90
18932;DHT22;9598;50.954;3.112;2024-01-15T05:01:56;4.60;99.90
18932;DHT22;9598;50.954;3.112;2024-01-15T05:06:58;4.60;99.90
18932;DHT22;9598;50.954;3.112;2024-01-15T05:12:02;4.50;99.90
18932;DHT22;9598;50.954;3.112;2024-01-15T05:17:04;4.50;99.90
18932;DHT22;9598;50.954;3.112;2024-01-15T05:22:06;4.50;99.90
18932;DHT22;9598;50.954;3.112;2024-01-15T05:27:10;4.40;99.90
18932;DHT22;9598;50.954;3.112;2024-01-15T05:32:12;4.40;99.90
18932;DHT22;9598;50.954;3.112;2024-01-15T05:37:14;4.30;99.90
18932;DHT22;9598;50.954;3.112;2024-01-15T05:42:17;4.40;99.90
18932;DHT22;9598;50.954;3.112;2024-01-15T05:47:19;4.40;99.90
18932;DHT22;9598;50.954;3.112;2024-01-15T05:52:22;4.30;99.90
18932;DHT22;9598;50.954;3.112;2024-01-15T05:57:25;4.40;99.90
18932;DHT22;9598;50.954;3.112;2024-01-15T06:02:27;4.30;99.90
18932;DHT22;9598;50.954;3.112;2024-01-15T06:07:29;4.40;99.90
18932;DHT22;9598;50.954;3.112;2024-01-15T06:12:32;4.40;99.90
18932;DHT22;9598;50.954;3.112;2024-01-15T06:17:35;4.40;99.90
18932;DHT22;9598;50.954;3.112;2024-01-15T06:22:37;4.30;99.90
18932;DHT22;9598;50.954;3.112;2024-01-15T06:27:41;4.30;99.90
18932;DHT22;9598;50.954;3.112;2024-01-15T06:32:43;4.30;99.90
18932;DHT22;9598;50.954;3.112;2024-01-15T06:37:45;4.20;99.90
18932;DHT22;9598;50.954;3.112;2024-01-15T06:42:48;4.10;99.90
18932;DHT22;9598;50.954;3.112;2024-01-15T06:47:51;4.00;99.90
18932;DHT22;9598;50.954;3.112;2024-01-15T06:52:53;3.90;99.90
18932;DHT22;9598;50.954;3.112;2024-01-15T06:57:56;3.80;99.90
18932;DHT22;9598;50.954;3.112;2024-01-15T07:02:58;3.80;99.90
18932;DHT22;9598;50.954;3.112;2024-01-15T07:08:00;3.70;99.90
18932;DHT22;9598;50.954;3.112;2024-01-15T07:13:04;3.70;99.90
18932;DHT22;9598;50.954;3.112;2024-01-15T07:18:06;3.60;99.90
18932;DHT22;9598;50.954;3.112;2024-01-15T07:23:08;3.60;99.90
18932;DHT22;9598;50.954;3.112;2024-01-15T07:28:12;3.60;99.90
18932;DHT22;9598;50.954;3.112;2024-01-15T07:33:14;3.60;99.90
18932;DHT22;9598;50.954;3.112;2024-01-15T07:38:16;3.60;99.90
18932;DHT22;9598;50.954;3.112;2024-01-15T07:43:19;3.60;99.90
18932;DHT22;9598;50.954;3.112;2024-01-15T07:48:22;3.60;99.90
18932;DHT22;9598;50.954;3.112;2024-01-15T07:53:24;3.50;99.90
18932;DHT22;9598;50.954;3.112;2024-01-15T07:58:27;3.50;99.90
18932;DHT22;9598;50.954;3.112;2024-01-15T08:03:29;3.60;99.90
18932;DHT22;9598;50.954;3.112;2024-01-15T08:08:32;3.60;99.90
18932;DHT22;9598;50.954;3.112;2024-01-15T08:13:35;3.60;99.90
18932;DHT22;9598;50.954;3.112;2024-01-15T08:18:37;3.60;99.90
18932;DHT22;9598;50.954;3.112;2024-01-15T08:23:39;3.60;99.90
18932;DHT22;9598;50.954;3.112;2024-01-15T08:28:43;3.60;99.90
18932;DHT22;9598;50.954;3.112;2024-01-15T08:33:46;3.70;99.90
18932;DHT22;9598;50.954;3.112;2024-01-15T08:38:48;3.60;99.90
18932;DHT22;9598;50.954;3.112;2024-01-15T08:43:51;3.60;99.90
18932;DHT22;9598;50.954;3.112;2024-01-15T08:48:54;3.60;99.90
18932;DHT22;9598;50.954;3.112;2024-01-15T08:53:56;3.60;99.90
18932;DHT22;9598;50.954;3.112;2024-01-15T08:59:00;3.70;99.90
18932;DHT22;9598;50.954;3.112;2024-01-15T09:04:02;3.70;99.90
18932;DHT22;9598;50.954;3.112;2024-01-15T09:09:05;3.70;99.90
18932;DHT22;9598;50.954;3.112;2024-01-15T09:14:08;3.80;99.90
18932;DHT22;9598;50.954;3.112;2024-01-15T09:19:10;3.80;99.90
18932;DHT22;9598;50.954;3.112;2024-01-15T09:24:12;3.80;99.90
18932;DHT22;9598;50.954;3.112;2024-01-15T09:29:16;3.80;99.90
18932;DHT22;9598;50.954;3.112;2024-01-15T09:34:19;3.80;99.90
18932;DHT22;9598;50.954;3.112;2024-01-15T09:39:21;3.80;99.90
18932;DHT22;9598;50.954;3.112;2024-01-15T09:44:25;3.80;99.90
18932;DHT22;9598;50.954;3.112;2024-01-15T09:49:28;3.80;99.90
18932;DHT22;9598;50.954;3.112;2024-01-15T09:54:30;3.90;99.90
18932;DHT22;9598;50.954;3.112;2024-01-15T09:59:34;4.00;99.90
18932;DHT22;9598;50.954;3.112;2024-01-15T10:04:38;4.00;99.90
18932;DHT22;9598;50.954;3.112;2024-01-15T10:09:40;4.10;99.90
18932;DHT22;9598;50.954;3.112;2024-01-15T10:14:43;4.20;99.90
18932;DHT22;9598;50.954;3.112;2024-01-15T10:19:45;4.30;99.90
18932;DHT22;9598;50.954;3.112;2024-01-15T10:24:48;4.30;99.90
18932;DHT22;9598;50.954;3.112;2024-01-15T10:29:52;4.20;99.90
18932;DHT22;9598;50.954;3.112;2024-01-15T10:34:54;4.20;99.90
18932;DHT22;9598;50.954;3.112;2024-01-15T10:39:57;4.20;99.90
18932;DHT22;9598;50.954;3.112;2024-01-15T10:45:01;4.10;99.90
18932;DHT22;9598;50.954;3.112;2024-01-15T10:50:04;4.10;99.90
18932;DHT22;9598;50.954;3.112;2024-01-15T10:55:08;4.10;99.90
18932;DHT22;9598;50.954;3.112;2024-01-15T11:00:12;4.20;99.90
18932;DHT22;9598;50.954;3.112;2024-01-15T11:05:15;4.30;99.90
18932;DHT22;9598;50.954;3.112;2024-01-15T11:10:40;4.40;99.90
18932;DHT22;9598;50.954;3.112;2024-01-15T11:16:00;4.50;99.90
18932;DHT22;9598;50.954;3.112;2024-01-15T11:21:21;4.50;99.90
18932;DHT22;9598;50.954;3.112;2024-01-15T11:26:37;4.40;99.90
18932;DHT22;9598;50.954;3.112;2024-01-15T11:32:01;4.40;99.90
18932;DHT22;9598;50.954;3.112;2024-01-15T11:37:05;4.40;99.90
18932;DHT22;9598;50.954;3.112;2024-01-15T11:42:07;4.50;99.90
18932;DHT22;9598;50.954;3.112;2024-01-15T11:47:12;4.50;99.90
18932;DHT22;9598;50.954;3.112;2024-01-15T11:52:17;4.60;99.90
18932;DHT22;9598;50.954;3.112;2024-01-15T11:57:25;4.80;99.90
18932;DHT22;9598;50.954;3.112;2024-01-15T12:02:34;4.80;99.90
18932;DHT22;9598;50.954;3.112;2024-01-15T12:07:36;4.80;99.90
18932;DHT22;9598;50.954;3.112;2024-01-15T12:12:53;4.80;99.90
18932;DHT22;9598;50.954;3.112;2024-01-15T12:17:58;4.90;99.90
18932;DHT22;9598;50.954;3.112;2024-01-15T12:23:02;4.90;99.90
18932;DHT22;9598;50.954;3.112;2024-01-15T12:28:05;4.90;99.90
18932;DHT22;9598;50.954;3.112;2024-01-15T12:33:08;4.90;99.90
18932;DHT22;9598;50.954;3.112;2024-01-15T12:38:10;4.80;99.90
18932;DHT22;9598;50.954;3.112;2024-01-15T12:43:13;4.70;99.90
18932;DHT22;9598;50.954;3.112;2024-01-15T12:48:16;4.70;99.90
18932;DHT22;9598;50.954;3.112;2024-01-15T12:53:19;4.70;99.90
18932;DHT22;9598;50.954;3.112;2024-01-15T12:58:21;4.80;99.90
18932;DHT22;9598;50.954;3.112;2024-01-15T13:03:25;4.80;99.90
18932;DHT22;9598;50.954;3.112;2024-01-15T13:08:28;4.80;99.90
18932;DHT22;9598;50.954;3.112;2024-01-15T13:13:30;4.90;99.90
18932;DHT22;9598;50.954;3.112;2024-01-15T13:18:36;5.00;99.90
18932;DHT22;9598;50.954;3.112;2024-01-15T13:23:38;5.10;99.90
18932;DHT22;9598;50.954;3.112;2024-01-15T13:28:40;5.10;99.90
18932;DHT22;9598;50.954;3.112;2024-01-15T13:33:44;5.00;99.90
18932;DHT22;9598;50.954;3.112;2024-01-15T13:38:46;5.00;99.90
18932;DHT22;9598;50.954;3.112;2024-01-15T13:43:49;5.00;99.90
18932;DHT22;9598;50.954;3.112;2024-01-15T13:48:55;4.90;99.90
18932;DHT22;9598;50.954;3.112;2024-01-15T13:53:57;4.90;99.90
18932;DHT22;9598;50.954;3.112;2024-01-15T13:58:59;4.90;99.90
18932;DHT22;9598;50.954;3.112;2024-01-15T14:04:02;4.80;99.90
18932;DHT22;9598;50.954;3.112;2024-01-15T14:09:05;4.80;99.90
18932;DHT22;9598;50.954;3.112;2024-01-15T14:14:10;4.80;99.90
18932;DHT22;9598;50.954;3.112;2024-01-15T14:19:13;4.80;99.90
18932;DHT22;9598;50.954;3.112;2024-01-15T14:24:16;4.90;99.90
18932;DHT22;9598;50.954;3.112;2024-01-15T14:29:18;4.90;99.90
18932;DHT22;9598;50.954;3.112;2024-01-15T14:34:25;4.80;99.90
18932;DHT22;9598;50.954;3.112;2024-01-15T14:39:27;4.80;99.90
18932;DHT22;9598;50.954;3.112;2024-01-15T14:44:29;4.70;99.90
18932;DHT22;9598;50.954;3.112;2024-01-15T14:49:32;4.70;99.90
18932;DHT22;9598;50.954;3.112;2024-01-15T14:54:35;4.60;99.90
18932;DHT22;9598;50.954;3.112;2024-01-15T14:59:39;4.60;99.90
18932;DHT22;9598;50.954;3.112;2024-01-15T15:04:42;4.60;99.90
18932;DHT22;9598;50.954;3.112;2024-01-15T15:09:45;4.60;99.90
18932;DHT22;9598;50.954;3.112;2024-01-15T15:14:47;4.60;99.90
18932;DHT22;9598;50.954;3.112;2024-01-15T15:19:51;4.70;99.90
18932;DHT22;9598;50.954;3.112;2024-01-15T15:24:54;4.70;99.90
18932;DHT22;9598;50.954;3.112;2024-01-15T15:29:56;4.60;99.90
18932;DHT22;9598;50.954;3.112;2024-01-15T15:35:00;4.70;99.90
18932;DHT22;9598;50.954;3.112;2024-01-15T15:40:02;4.60;99.90
18932;DHT22;9598;50.954;3.112;2024-01-15T15:45:05;4.60;99.90
18932;DHT22;9598;50.954;3.112;2024-01-15T15:50:09;4.60;99.90
18932;DHT22;9598;50.954;3.112;2024-01-15T15:55:11;4.50;99.90
18932;DHT22;9598;50.954;3.112;2024-01-15T16:00:14;4.50;99.90
18932;DHT22;9598;50.954;3.112;2024-01-15T16:05:17;4.50;99.90
18932;DHT22;9598;50.954;3.112;2024-01-15T16:10:19;4.50;99.90
18932;DHT22;9598;50.954;3.112;2024-01-15T16:15:23;4.40;99.90
18932;DHT22;9598;50.954;3.112;2024-01-15T16:20:26;4.40;99.90
18932;DHT22;9598;50.954;3.112;2024-01-15T16:25:28;4.40;99.90
18932;DHT22;9598;50.954;3.112;2024-01-15T16:30:31;4.30;99.90
18932;DHT22;9598;50.954;3.112;2024-01-15T16:35:34;4.30;99.90
18932;DHT22;9598;50.954;3.112;2024-01-15T16:40:36;4.20;99.90
18932;DHT22;9598;50.954;3.112;2024-01-15T16:45:39;4.10;99.90
18932;DHT22;9598;50.954;3.112;2024-01-15T16:50:43;4.10;99.90
18932;DHT22;9598;50.954;3.112;2024-01-15T16:55:45;4.00;99.90
18932;DHT22;9598;50.954;3.112;2024-01-15T17:00:47;4.10;99.90
18932;DHT22;9598;50.954;3.112;2024-01-15T17:05:50;4.10;99.90
18932;DHT22;9598;50.954;3.112;2024-01-15T17:10:52;4.10;99.90
18932;DHT22;9598;50.954;3.112;2024-01-15T17:15:54;4.10;99.90
18932;DHT22;9598;50.954;3.112;2024-01-15T17:20:58;4.00;99.90
18932;DHT22;9598;50.954;3.112;2024-01-15T17:26:01;4.00;99.90
18932;DHT22;9598;50.954;3.112;2024-01-15T17:31:03;4.00;99.90
18932;DHT22;9598;50.954;3.112;2024-01-15T17:36:08;3.90;99.90
18932;DHT22;9598;50.954;3.112;2024-01-15T17:41:10;3.90;99.90
18932;DHT22;9598;50.954;3.112;2024-01-15T17:46:13;3.90;99.90
18932;DHT22;9598;50.954;3.112;2024-01-15T17:51:18;3.90;99.90
18932;DHT22;9598;50.954;3.112;2024-01-15T17:56:20;3.90;99.90
18932;DHT22;9598;50.954;3.112;2024-01-15T18:01:22;3.90;99.90
18932;DHT22;9598;50.954;3.112;2024-01-15T18:06:26;3.90;99.90
18932;DHT22;9598;50.954;3.112;2024-01-15T18:11:28;3.90;99.90
18932;DHT22;9598;50.954;3.112;2024-01-15T18:16:31;4.00;99.90
18932;DHT22;9598;50.954;3.112;2024-01-15T18:21:34;4.00;99.90
18932;DHT22;9598;50.954;3.112;2024-01-15T18:26:36;4.00;99.90
18932;DHT22;9598;50.954;3.112;2024-01-15T18:31:40;4.10;99.90
18932;DHT22;9598;50.954;3.112;2024-01-15T18:36:43;4.00;99.90
18932;DHT22;9598;50.954;3.112;2024-01-15T18:41:47;4.00;99.90
18932;DHT22;9598;50.954;3.112;2024-01-15T18:46:49;4.00;99.90
18932;DHT22;9598;50.954;3.112;2024-01-15T18:51:53;4.00;99.90
18932;DHT22;9598;50.954;3.112;2024-01-15T18:56:57;4.00;99.90
18932;DHT22;9598;50.954;3.112;2024-01-15T19:01:59;4.00;99.90
18932;DHT22;9598;50.954;3.112;2024-01-15T19:07:03;4.00;99.90
18932;DHT22;9598;50.954;3.112;2024-01-15T19:12:07;4.00;99.90
18932;DHT22;9598;50.954;3.112;2024-01-15T19:17:09;4.10;99.90
18932;DHT22;9598;50.954;3.112;2024-01-15T19:22:13;4.10;99.90
18932;DHT22;9598;50.954;3.112;2024-01-15T19:27:15;4.10;99.90
18932;DHT22;9598;50.954;3.112;2024-01-15T19:32:17;4.00;99.90
18932;DHT22;9598;50.954;3.112;2024-01-15T19:37:21;4.10;99.90
18932;DHT22;9598;50.954;3.112;2024-01-15T19:42:23;4.10;99.90
18932;DHT22;9598;50.954;3.112;2024-01-15T19:47:25;4.00;99.90
18932;DHT22;9598;50.954;3.112;2024-01-15T19:52:30;4.00;99.90
18932;DHT22;9598;50.954;3.112;2024-01-15T19:57:32;4.00;99.90
18932;DHT22;9598;50.954;3.112;2024-01-15T20:02:34;4.00;99.90
18932;DHT22;9598;50.954;3.112;2024-01-15T20:07:37;4.00;99.90
18932;DHT22;9598;50.954;3.112;2024-01-15T20:12:39;4.00;99.90
18932;DHT22;9598;50.954;3.112;2024-01-15T20:17:41;4.00;99.90
18932;DHT22;9598;50.954;3.112;2024-01-15T20:22:45;3.90;99.90
18932;DHT22;9598;50.954;3.112;2024-01-15T20:27:47;3.90;99.90
18932;DHT22;9598;50.954;3.112;2024-01-15T20:32:49;3.90;99.90
18932;DHT22;9598;50.954;3.112;2024-01-15T20:37:53;3.90;99.90
18932;DHT22;9598;50.954;3.112;2024-01-15T20:42:56;3.90;99.90
18932;DHT22;9598;50.954;3.112;2024-01-15T20:47:58;3.90;99.90
18932;DHT22;9598;50.954;3.112;2024-01-15T20:53:02;3.90;99.90
18932;DHT22;9598;50.954;3.112;2024-01-15T20:58:07;3.90;99.90
18932;DHT22;9598;50.954;3.112;2024-01-15T21:03:10;3.90;99.90
18932;DHT22;9598;50.954;3.112;2024-01-15T21:08:14;3.90;99.90
18932;DHT22;9598;50.954;3.112;2024-01-15T21:13:16;3.80;99.90
18932;DHT22;9598;50.954;3.112;2024-01-15T21:18:18;3.80;99.90
18932;DHT22;9598;50.954;3.112;2024-01-15T21:23:21;3.80;99.90
18932;DHT22;9598;50.954;3.112;2024-01-15T21:28:23;3.80;99.90
18932;DHT22;9598;50.954;3.112;2024-01-15T21:33:25;3.70;99.90
18932;DHT22;9598;50.954;3.112;2024-01-15T21:38:31;3.70;99.90
18932;DHT22;9598;50.954;3.112;2024-01-15T21:43:33;3.60;99.90
18932;DHT22;9598;50.954;3.112;2024-01-15T21:48:35;3.60;99.90
18932;DHT22;9598;50.954;3.112;2024-01-15T21:53:39;3.60;99.90
18932;DHT22;9598;50.954;3.112;2024-01-15T21:58:41;3.50;99.90
18932;DHT22;9598;50.954;3.112;2024-01-15T22:03:43;3.50;99.90
18932;DHT22;9598;50.954;3.112;2024-01-15T22:08:47;3.40;99.90
18932;DHT22;9598;50.954;3.112;2024-01-15T22:13:49;3.30;99.90
18932;DHT22;9598;50.954;3.112;2024-01-15T22:18:51;3.30;99.90
18932;DHT22;9598;50.954;3.112;2024-01-15T22:23:54;3.30;99.90
18932;DHT22;9598;50.954;3.112;2024-01-15T22:28:56;3.20;99.90
18932;DHT22;9598;50.954;3.112;2024-01-15T22:33:59;3.10;99.90
18932;DHT22;9598;50.954;3.112;2024-01-15T22:39:02;3.10;99.90
18932;DHT22;9598;50.954;3.112;2024-01-15T22:44:05;3.00;99.90
18932;DHT22;9598;50.954;3.112;2024-01-15T22:49:08;3.00;99.90
18932;DHT22;9598;50.954;3.112;2024-01-15T22:54:12;3.00;99.90
18932;DHT22;9598;50.954;3.112;2024-01-15T22:59:14;3.00;99.90
18932;DHT22;9598;50.954;3.112;2024-01-15T23:04:19;2.90;99.90
18932;DHT22;9598;50.954;3.112;2024-01-15T23:09:23;2.90;99.90
18932;DHT22;9598;50.954;3.112;2024-01-15T23:14:25;2.90;99.90
18932;DHT22;9598;50.954;3.112;2024-01-15T23:19:27;2.90;99.90
18932;DHT22;9598;50.954;3.112;2024-01-15T23:24:30;2.80;99.90
18932;DHT22;9598;50.954;3.112;2024-01-15T23:29:32;2.80;99.90
18932;DHT22;9598;50.954;3.112;2024-01-15T23:34:35;2.70;99.90
18932;DHT22;9598;50.954;3.112;2024-01-15T23:39:38;2.70;99.90
18932;DHT22;9598;50.954;3.112;2024-01-15T23:44:40;2.60;99.90
18932;DHT22;9598;50.954;3.112;2024-01-15T23:49:42;2.50;99.90
18932;DHT22;9598;50.954;3.112;2024-01-15T23:54:46;2.50;99.90
18932;DHT22;9598;50.954;3.112;2024-01-15T23:59:48;2.50;99.90
